sensor_id;sensor_type;location;lat;lon;timestamp;P1;durP1;ratioP1;P2;durP2;ratioP2
7575;SDS011;3829;50.798;4.358;2023-04-15T00:00:29;4.33;;;2.87;;
7575;SDS011;3829;50.798;4.358;2023-04-15T00:02:54;7.33;;;2.43;;
7575;SDS011;3829;50.798;4.358;2023-04-15T00:05:20;3.97;;;2.87;;
7575;SDS011;3829;50.798;4.358;2023-04-15T00:07:46;5.53;;;3.33;;
7575;SDS011;3829;50.798;4.358;2023-04-15T00:10:12;5.33;;;3.10;;
7575;SDS011;3829;50.798;4.358;2023-04-15T00:12:38;6.90;;;2.53;;
7575;SDS011;3829;50.798;4.358;2023-04-15T00:15:05;4.30;;;2.63;;
7575;SDS011;3829;50.798;4.358;2023-04-15T00:17:32;5.47;;;2.70;;
7575;SDS011;3829;50.798;4.358;2023-04-15T00:19:58;5.20;;;2.63;;
7575;SDS011;3829;50.798;4.358;2023-04-15T00:22:24;3.17;;;2.20;;
7575;SDS011;3829;50.798;4.358;2023-04-15T00:24:51;6.20;;;2.83;;
7575;SDS011;3829;50.798;4.358;2023-04-15T00:27:17;5.63;;;2.50;;
7575;SDS011;3829;50.798;4.358;2023-04-15T00:29:43;3.73;;;2.53;;
7575;SDS011;3829;50.798;4.358;2023-04-15T00:32:09;4.73;;;2.53;;
7575;SDS011;3829;50.798;4.358;2023-04-15T00:34:34;3.97;;;2.50;;
7575;SDS011;3829;50.798;4.358;2023-04-15T00:37:00;6.57;;;2.87;;
7575;SDS011;3829;50.798;4.358;2023-04-15T00:39:26;4.50;;;2.50;;
7575;SDS011;3829;50.798;4.358;2023-04-15T00:41:52;5.07;;;3.00;;
7575;SDS011;3829;50.798;4.358;2023-04-15T00:44:18;4.03;;;2.67;;
7575;SDS011;3829;50.798;4.358;2023-04-15T00:46:44;7.20;;;3.10;;
7575;SDS011;3829;50.798;4.358;2023-04-15T00:49:10;3.87;;;2.77;;
7575;SDS011;3829;50.798;4.358;2023-04-15T00:51:37;3.67;;;2.73;;
7575;SDS011;3829;50.798;4.358;2023-04-15T00:54:03;5.93;;;3.30;;
7575;SDS011;3829;50.798;4.358;2023-04-15T00:56:30;4.03;;;3.10;;
7575;SDS011;3829;50.798;4.358;2023-04-15T00:58:59;5.97;;;3.33;;
7575;SDS011;3829;50.798;4.358;2023-04-15T01:01:26;5.13;;;3.10;;
7575;SDS011;3829;50.798;4.358;2023-04-15T01:03:54;5.73;;;3.40;;
7575;SDS011;3829;50.798;4.358;2023-04-15T01:06:20;11.33;;;3.13;;
7575;SDS011;3829;50.798;4.358;2023-04-15T01:08:49;7.27;;;3.57;;
7575;SDS011;3829;50.798;4.358;2023-04-15T01:11:15;4.10;;;2.90;;
7575;SDS011;3829;50.798;4.358;2023-04-15T01:13:41;4.20;;;3.17;;
7575;SDS011;3829;50.798;4.358;2023-04-15T01:16:07;6.23;;;3.17;;
7575;SDS011;3829;50.798;4.358;2023-04-15T01:18:34;6.70;;;3.23;;
7575;SDS011;3829;50.798;4.358;2023-04-15T01:21:01;8.27;;;3.77;;
7575;SDS011;3829;50.798;4.358;2023-04-15T01:23:28;5.97;;;3.73;;
7575;SDS011;3829;50.798;4.358;2023-04-15T01:25:54;4.23;;;3.07;;
7575;SDS011;3829;50.798;4.358;2023-04-15T01:28:20;5.40;;;3.50;;
7575;SDS011;3829;50.798;4.358;2023-04-15T01:30:46;5.13;;;3.20;;
7575;SDS011;3829;50.798;4.358;2023-04-15T01:33:12;4.87;;;3.10;;
7575;SDS011;3829;50.798;4.358;2023-04-15T01:35:38;4.17;;;3.10;;
7575;SDS011;3829;50.798;4.358;2023-04-15T01:38:04;5.40;;;3.20;;
7575;SDS011;3829;50.798;4.358;2023-04-15T01:40:32;5.30;;;3.20;;
7575;SDS011;3829;50.798;4.358;2023-04-15T01:42:59;4.03;;;3.33;;
7575;SDS011;3829;50.798;4.358;2023-04-15T01:45:25;4.03;;;3.27;;
7575;SDS011;3829;50.798;4.358;2023-04-15T01:47:51;5.97;;;3.33;;
7575;SDS011;3829;50.798;4.358;2023-04-15T01:50:17;4.23;;;3.40;;
7575;SDS011;3829;50.798;4.358;2023-04-15T01:52:44;6.00;;;3.40;;
7575;SDS011;3829;50.798;4.358;2023-04-15T01:55:10;4.47;;;3.27;;
7575;SDS011;3829;50.798;4.358;2023-04-15T01:57:36;5.23;;;3.57;;
7575;SDS011;3829;50.798;4.358;2023-04-15T02:00:02;4.73;;;3.50;;
7575;SDS011;3829;50.798;4.358;2023-04-15T02:02:28;6.90;;;3.70;;
7575;SDS011;3829;50.798;4.358;2023-04-15T02:04:53;10.60;;;3.60;;
7575;SDS011;3829;50.798;4.358;2023-04-15T02:07:19;6.57;;;3.50;;
7575;SDS011;3829;50.798;4.358;2023-04-15T02:09:45;5.60;;;3.60;;
7575;SDS011;3829;50.798;4.358;2023-04-15T02:12:11;6.77;;;3.77;;
7575;SDS011;3829;50.798;4.358;2023-04-15T02:14:37;5.63;;;3.50;;
7575;SDS011;3829;50.798;4.358;2023-04-15T02:17:03;6.13;;;4.10;;
7575;SDS011;3829;50.798;4.358;2023-04-15T02:19:32;8.00;;;3.87;;
7575;SDS011;3829;50.798;4.358;2023-04-15T02:21:59;5.87;;;3.50;;
7575;SDS011;3829;50.798;4.358;2023-04-15T02:24:26;6.30;;;4.10;;
7575;SDS011;3829;50.798;4.358;2023-04-15T02:26:52;5.23;;;3.63;;
7575;SDS011;3829;50.798;4.358;2023-04-15T02:29:18;4.70;;;3.70;;
7575;SDS011;3829;50.798;4.358;2023-04-15T02:31:43;6.87;;;3.77;;
7575;SDS011;3829;50.798;4.358;2023-04-15T02:34:09;5.57;;;3.60;;
7575;SDS011;3829;50.798;4.358;2023-04-15T02:36:35;3.97;;;3.50;;
7575;SDS011;3829;50.798;4.358;2023-04-15T02:39:01;5.00;;;3.30;;
7575;SDS011;3829;50.798;4.358;2023-04-15T02:41:28;4.17;;;3.07;;
7575;SDS011;3829;50.798;4.358;2023-04-15T02:43:54;7.37;;;3.20;;
7575;SDS011;3829;50.798;4.358;2023-04-15T02:46:20;5.97;;;3.23;;
7575;SDS011;3829;50.798;4.358;2023-04-15T02:48:47;3.30;;;2.67;;
7575;SDS011;3829;50.798;4.358;2023-04-15T02:51:18;6.03;;;3.50;;
7575;SDS011;3829;50.798;4.358;2023-04-15T02:53:45;4.10;;;3.13;;
7575;SDS011;3829;50.798;4.358;2023-04-15T02:56:11;6.80;;;3.47;;
7575;SDS011;3829;50.798;4.358;2023-04-15T02:58:39;5.13;;;3.23;;
7575;SDS011;3829;50.798;4.358;2023-04-15T03:01:05;5.27;;;2.83;;
7575;SDS011;3829;50.798;4.358;2023-04-15T03:03:32;7.70;;;3.13;;
7575;SDS011;3829;50.798;4.358;2023-04-15T03:05:58;4.03;;;3.03;;
7575;SDS011;3829;50.798;4.358;2023-04-15T03:08:24;4.37;;;3.00;;
7575;SDS011;3829;50.798;4.358;2023-04-15T03:10:50;3.93;;;2.80;;
7575;SDS011;3829;50.798;4.358;2023-04-15T03:13:17;5.30;;;3.40;;
7575;SDS011;3829;50.798;4.358;2023-04-15T03:15:42;3.90;;;2.77;;
7575;SDS011;3829;50.798;4.358;2023-04-15T03:18:10;5.23;;;3.23;;
7575;SDS011;3829;50.798;4.358;2023-04-15T03:20:36;8.10;;;3.50;;
7575;SDS011;3829;50.798;4.358;2023-04-15T03:23:01;8.63;;;4.47;;
7575;SDS011;3829;50.798;4.358;2023-04-15T03:25:27;9.33;;;4.40;;
7575;SDS011;3829;50.798;4.358;2023-04-15T03:27:52;16.87;;;5.70;;
7575;SDS011;3829;50.798;4.358;2023-04-15T03:30:18;7.90;;;4.60;;
7575;SDS011;3829;50.798;4.358;2023-04-15T03:32:44;8.27;;;4.50;;
7575;SDS011;3829;50.798;4.358;2023-04-15T03:35:10;13.10;;;5.17;;
7575;SDS011;3829;50.798;4.358;2023-04-15T03:37:35;8.67;;;4.77;;
7575;SDS011;3829;50.798;4.358;2023-04-15T03:40:01;11.40;;;4.97;;
7575;SDS011;3829;50.798;4.358;2023-04-15T03:42:27;12.27;;;5.67;;
7575;SDS011;3829;50.798;4.358;2023-04-15T03:44:52;13.43;;;7.17;;
7575;SDS011;3829;50.798;4.358;2023-04-15T03:47:18;20.63;;;9.20;;
7575;SDS011;3829;50.798;4.358;2023-04-15T03:49:43;22.73;;;8.93;;
7575;SDS011;3829;50.798;4.358;2023-04-15T03:52:09;20.63;;;8.93;;
7575;SDS011;3829;50.798;4.358;2023-04-15T03:54:35;24.03;;;10.60;;
7575;SDS011;3829;50.798;4.358;2023-04-15T03:57:00;22.63;;;10.83;;
7575;SDS011;3829;50.798;4.358;2023-04-15T03:59:26;23.43;;;10.13;;
7575;SDS011;3829;50.798;4.358;2023-04-15T04:01:51;24.00;;;10.37;;
7575;SDS011;3829;50.798;4.358;2023-04-15T04:04:17;18.60;;;9.30;;
7575;SDS011;3829;50.798;4.358;2023-04-15T04:06:43;20.63;;;9.97;;
7575;SDS011;3829;50.798;4.358;2023-04-15T04:09:08;25.97;;;9.93;;
7575;SDS011;3829;50.798;4.358;2023-04-15T04:11:34;19.60;;;10.27;;
7575;SDS011;3829;50.798;4.358;2023-04-15T04:14:01;25.67;;;11.17;;
7575;SDS011;3829;50.798;4.358;2023-04-15T04:16:27;22.93;;;9.83;;
7575;SDS011;3829;50.798;4.358;2023-04-15T04:18:52;21.97;;;9.77;;
7575;SDS011;3829;50.798;4.358;2023-04-15T04:21:18;14.97;;;8.87;;
7575;SDS011;3829;50.798;4.358;2023-04-15T04:23:45;18.97;;;8.70;;
7575;SDS011;3829;50.798;4.358;2023-04-15T04:26:10;16.57;;;9.07;;
7575;SDS011;3829;50.798;4.358;2023-04-15T04:28:36;18.63;;;9.00;;
7575;SDS011;3829;50.798;4.358;2023-04-15T04:31:04;15.30;;;8.00;;
7575;SDS011;3829;50.798;4.358;2023-04-15T04:33:30;15.73;;;9.17;;
7575;SDS011;3829;50.798;4.358;2023-04-15T04:35:56;17.47;;;9.17;;
7575;SDS011;3829;50.798;4.358;2023-04-15T04:38:21;17.00;;;8.50;;
7575;SDS011;3829;50.798;4.358;2023-04-15T04:40:47;15.17;;;8.53;;
7575;SDS011;3829;50.798;4.358;2023-04-15T04:43:13;14.67;;;8.17;;
7575;SDS011;3829;50.798;4.358;2023-04-15T04:45:39;15.67;;;7.53;;
7575;SDS011;3829;50.798;4.358;2023-04-15T04:48:05;16.50;;;6.63;;
7575;SDS011;3829;50.798;4.358;2023-04-15T04:50:33;11.47;;;7.20;;
7575;SDS011;3829;50.798;4.358;2023-04-15T04:52:59;13.20;;;7.10;;
7575;SDS011;3829;50.798;4.358;2023-04-15T04:55:25;10.33;;;6.67;;
7575;SDS011;3829;50.798;4.358;2023-04-15T04:57:51;12.63;;;7.23;;
7575;SDS011;3829;50.798;4.358;2023-04-15T05:00:16;11.60;;;7.27;;
7575;SDS011;3829;50.798;4.358;2023-04-15T05:02:42;14.87;;;7.30;;
7575;SDS011;3829;50.798;4.358;2023-04-15T05:05:08;12.47;;;7.47;;
7575;SDS011;3829;50.798;4.358;2023-04-15T05:07:34;11.73;;;7.43;;
7575;SDS011;3829;50.798;4.358;2023-04-15T05:10:00;14.83;;;7.03;;
7575;SDS011;3829;50.798;4.358;2023-04-15T05:12:25;12.33;;;6.97;;
7575;SDS011;3829;50.798;4.358;2023-04-15T05:14:51;11.70;;;6.53;;
7575;SDS011;3829;50.798;4.358;2023-04-15T05:17:16;10.73;;;6.20;;
7575;SDS011;3829;50.798;4.358;2023-04-15T05:19:42;12.97;;;6.53;;
7575;SDS011;3829;50.798;4.358;2023-04-15T05:22:07;14.03;;;7.40;;
7575;SDS011;3829;50.798;4.358;2023-04-15T05:24:33;14.13;;;6.97;;
7575;SDS011;3829;50.798;4.358;2023-04-15T05:26:59;10.57;;;6.57;;
7575;SDS011;3829;50.798;4.358;2023-04-15T05:29:25;11.43;;;7.23;;
7575;SDS011;3829;50.798;4.358;2023-04-15T05:31:51;14.60;;;6.93;;
7575;SDS011;3829;50.798;4.358;2023-04-15T05:34:16;12.43;;;6.07;;
7575;SDS011;3829;50.798;4.358;2023-04-15T05:36:42;15.33;;;6.70;;
7575;SDS011;3829;50.798;4.358;2023-04-15T05:39:08;17.00;;;6.93;;
7575;SDS011;3829;50.798;4.358;2023-04-15T05:41:33;12.40;;;7.17;;
7575;SDS011;3829;50.798;4.358;2023-04-15T05:43:59;9.93;;;5.57;;
7575;SDS011;3829;50.798;4.358;2023-04-15T05:46:25;12.43;;;6.13;;
7575;SDS011;3829;50.798;4.358;2023-04-15T05:48:51;9.67;;;6.20;;
7575;SDS011;3829;50.798;4.358;2023-04-15T05:51:17;10.43;;;6.17;;
7575;SDS011;3829;50.798;4.358;2023-04-15T05:53:42;12.50;;;6.00;;
7575;SDS011;3829;50.798;4.358;2023-04-15T05:56:08;13.20;;;6.10;;
7575;SDS011;3829;50.798;4.358;2023-04-15T05:58:33;12.20;;;5.47;;
7575;SDS011;3829;50.798;4.358;2023-04-15T06:00:59;9.17;;;5.50;;
7575;SDS011;3829;50.798;4.358;2023-04-15T06:03:25;12.23;;;5.47;;
7575;SDS011;3829;50.798;4.358;2023-04-15T06:05:51;10.57;;;6.17;;
7575;SDS011;3829;50.798;4.358;2023-04-15T06:08:16;13.27;;;5.53;;
7575;SDS011;3829;50.798;4.358;2023-04-15T06:10:43;14.83;;;5.80;;
7575;SDS011;3829;50.798;4.358;2023-04-15T06:13:08;11.87;;;5.60;;
7575;SDS011;3829;50.798;4.358;2023-04-15T06:15:34;12.13;;;5.67;;
7575;SDS011;3829;50.798;4.358;2023-04-15T06:17:59;11.40;;;5.33;;
7575;SDS011;3829;50.798;4.358;2023-04-15T06:20:25;12.03;;;6.23;;
7575;SDS011;3829;50.798;4.358;2023-04-15T06:22:51;12.30;;;6.17;;
7575;SDS011;3829;50.798;4.358;2023-04-15T06:25:16;13.73;;;5.40;;
7575;SDS011;3829;50.798;4.358;2023-04-15T06:27:42;12.63;;;5.57;;
7575;SDS011;3829;50.798;4.358;2023-04-15T06:30:07;13.40;;;5.70;;
7575;SDS011;3829;50.798;4.358;2023-04-15T06:32:33;10.33;;;5.93;;
7575;SDS011;3829;50.798;4.358;2023-04-15T06:34:59;8.47;;;5.40;;
7575;SDS011;3829;50.798;4.358;2023-04-15T06:37:25;9.17;;;5.23;;
7575;SDS011;3829;50.798;4.358;2023-04-15T06:39:50;8.33;;;5.60;;
7575;SDS011;3829;50.798;4.358;2023-04-15T06:42:16;9.10;;;5.60;;
7575;SDS011;3829;50.798;4.358;2023-04-15T06:44:42;8.60;;;5.43;;
7575;SDS011;3829;50.798;4.358;2023-04-15T06:47:07;8.37;;;5.00;;
7575;SDS011;3829;50.798;4.358;2023-04-15T06:49:33;12.03;;;5.83;;
7575;SDS011;3829;50.798;4.358;2023-04-15T06:51:59;10.03;;;5.73;;
7575;SDS011;3829;50.798;4.358;2023-04-15T06:54:25;10.80;;;5.90;;
7575;SDS011;3829;50.798;4.358;2023-04-15T06:56:51;9.40;;;5.77;;
7575;SDS011;3829;50.798;4.358;2023-04-15T06:59:17;12.50;;;6.00;;
7575;SDS011;3829;50.798;4.358;2023-04-15T07:01:43;9.83;;;6.10;;
7575;SDS011;3829;50.798;4.358;2023-04-15T07:04:08;8.80;;;5.10;;
7575;SDS011;3829;50.798;4.358;2023-04-15T07:06:35;10.00;;;5.60;;
7575;SDS011;3829;50.798;4.358;2023-04-15T07:09:01;8.87;;;5.23;;
7575;SDS011;3829;50.798;4.358;2023-04-15T07:11:28;11.30;;;5.40;;
7575;SDS011;3829;50.798;4.358;2023-04-15T07:13:54;9.80;;;5.27;;
7575;SDS011;3829;50.798;4.358;2023-04-15T07:16:20;9.87;;;4.93;;
7575;SDS011;3829;50.798;4.358;2023-04-15T07:18:46;8.07;;;4.63;;
7575;SDS011;3829;50.798;4.358;2023-04-15T07:21:12;11.03;;;5.30;;
7575;SDS011;3829;50.798;4.358;2023-04-15T07:23:37;11.77;;;4.83;;
7575;SDS011;3829;50.798;4.358;2023-04-15T07:26:03;7.90;;;4.53;;
7575;SDS011;3829;50.798;4.358;2023-04-15T07:28:28;10.00;;;4.50;;
7575;SDS011;3829;50.798;4.358;2023-04-15T07:30:54;8.07;;;4.07;;
7575;SDS011;3829;50.798;4.358;2023-04-15T07:33:21;9.73;;;4.70;;
7575;SDS011;3829;50.798;4.358;2023-04-15T07:35:47;8.80;;;4.40;;
7575;SDS011;3829;50.798;4.358;2023-04-15T07:38:13;8.03;;;4.57;;
7575;SDS011;3829;50.798;4.358;2023-04-15T07:40:39;12.57;;;4.97;;
7575;SDS011;3829;50.798;4.358;2023-04-15T07:43:04;7.57;;;5.03;;
7575;SDS011;3829;50.798;4.358;2023-04-15T07:45:30;8.40;;;4.53;;
7575;SDS011;3829;50.798;4.358;2023-04-15T07:47:56;9.10;;;4.77;;
7575;SDS011;3829;50.798;4.358;2023-04-15T07:50:22;10.60;;;5.77;;
7575;SDS011;3829;50.798;4.358;2023-04-15T07:52:48;8.83;;;5.07;;
7575;SDS011;3829;50.798;4.358;2023-04-15T07:55:15;11.50;;;6.10;;
7575;SDS011;3829;50.798;4.358;2023-04-15T07:57:43;10.60;;;5.60;;
7575;SDS011;3829;50.798;4.358;2023-04-15T08:00:09;11.50;;;6.20;;
7575;SDS011;3829;50.798;4.358;2023-04-15T08:02:35;14.03;;;6.87;;
7575;SDS011;3829;50.798;4.358;2023-04-15T08:05:01;14.83;;;7.37;;
7575;SDS011;3829;50.798;4.358;2023-04-15T08:07:28;12.13;;;7.00;;
7575;SDS011;3829;50.798;4.358;2023-04-15T08:09:54;14.97;;;7.40;;
7575;SDS011;3829;50.798;4.358;2023-04-15T08:12:19;11.77;;;7.40;;
7575;SDS011;3829;50.798;4.358;2023-04-15T08:14:45;12.33;;;7.10;;
7575;SDS011;3829;50.798;4.358;2023-04-15T08:17:11;12.60;;;6.97;;
7575;SDS011;3829;50.798;4.358;2023-04-15T08:19:37;12.83;;;7.97;;
7575;SDS011;3829;50.798;4.358;2023-04-15T08:22:02;12.57;;;7.60;;
7575;SDS011;3829;50.798;4.358;2023-04-15T08:24:30;11.90;;;7.13;;
7575;SDS011;3829;50.798;4.358;2023-04-15T08:26:55;13.90;;;7.53;;
7575;SDS011;3829;50.798;4.358;2023-04-15T08:29:21;12.57;;;8.27;;
7575;SDS011;3829;50.798;4.358;2023-04-15T08:31:47;14.60;;;8.27;;
7575;SDS011;3829;50.798;4.358;2023-04-15T08:34:13;16.33;;;7.67;;
7575;SDS011;3829;50.798;4.358;2023-04-15T08:36:39;11.07;;;7.27;;
7575;SDS011;3829;50.798;4.358;2023-04-15T08:39:06;16.53;;;7.90;;
7575;SDS011;3829;50.798;4.358;2023-04-15T08:41:45;11.40;;;7.90;;
7575;SDS011;3829;50.798;4.358;2023-04-15T08:44:12;13.57;;;7.33;;
7575;SDS011;3829;50.798;4.358;2023-04-15T08:46:38;11.40;;;8.10;;
7575;SDS011;3829;50.798;4.358;2023-04-15T08:49:06;11.27;;;7.47;;
7575;SDS011;3829;50.798;4.358;2023-04-15T08:51:35;13.20;;;7.13;;
7575;SDS011;3829;50.798;4.358;2023-04-15T08:54:02;12.30;;;7.83;;
7575;SDS011;3829;50.798;4.358;2023-04-15T08:56:30;13.90;;;8.43;;
7575;SDS011;3829;50.798;4.358;2023-04-15T08:58:59;10.33;;;7.40;;
7575;SDS011;3829;50.798;4.358;2023-04-15T09:01:25;11.40;;;7.77;;
7575;SDS011;3829;50.798;4.358;2023-04-15T09:03:51;17.73;;;8.83;;
7575;SDS011;3829;50.798;4.358;2023-04-15T09:06:21;12.03;;;8.07;;
7575;SDS011;3829;50.798;4.358;2023-04-15T09:08:48;12.10;;;8.57;;
7575;SDS011;3829;50.798;4.358;2023-04-15T09:11:15;13.43;;;8.80;;
7575;SDS011;3829;50.798;4.358;2023-04-15T09:13:42;13.47;;;8.30;;
7575;SDS011;3829;50.798;4.358;2023-04-15T09:16:07;15.63;;;7.83;;
7575;SDS011;3829;50.798;4.358;2023-04-15T09:18:34;16.27;;;7.90;;
7575;SDS011;3829;50.798;4.358;2023-04-15T09:21:18;16.70;;;8.83;;
7575;SDS011;3829;50.798;4.358;2023-04-15T09:23:55;17.50;;;8.07;;
7575;SDS011;3829;50.798;4.358;2023-04-15T09:26:55;11.83;;;7.63;;
7575;SDS011;3829;50.798;4.358;2023-04-15T09:29:20;13.47;;;8.37;;
7575;SDS011;3829;50.798;4.358;2023-04-15T09:31:49;16.87;;;8.83;;
7575;SDS011;3829;50.798;4.358;2023-04-15T09:34:14;13.80;;;8.17;;
7575;SDS011;3829;50.798;4.358;2023-04-15T09:37:01;12.53;;;7.67;;
7575;SDS011;3829;50.798;4.358;2023-04-15T09:39:26;12.03;;;6.90;;
7575;SDS011;3829;50.798;4.358;2023-04-15T09:42:07;7.80;;;5.03;;
7575;SDS011;3829;50.798;4.358;2023-04-15T09:44:33;8.30;;;4.73;;
7575;SDS011;3829;50.798;4.358;2023-04-15T09:46:58;10.13;;;4.70;;
7575;SDS011;3829;50.798;4.358;2023-04-15T09:49:24;10.30;;;4.97;;
7575;SDS011;3829;50.798;4.358;2023-04-15T09:51:50;10.33;;;5.20;;
7575;SDS011;3829;50.798;4.358;2023-04-15T09:54:18;6.83;;;4.40;;
7575;SDS011;3829;50.798;4.358;2023-04-15T09:56:46;7.90;;;4.60;;
7575;SDS011;3829;50.798;4.358;2023-04-15T09:59:12;11.67;;;5.10;;
7575;SDS011;3829;50.798;4.358;2023-04-15T10:01:38;10.90;;;5.73;;
7575;SDS011;3829;50.798;4.358;2023-04-15T10:04:06;8.80;;;5.40;;
7575;SDS011;3829;50.798;4.358;2023-04-15T10:06:36;9.00;;;4.67;;
7575;SDS011;3829;50.798;4.358;2023-04-15T10:09:04;8.07;;;5.27;;
7575;SDS011;3829;50.798;4.358;2023-04-15T10:11:31;6.60;;;4.90;;
7575;SDS011;3829;50.798;4.358;2023-04-15T10:13:58;7.97;;;4.40;;
7575;SDS011;3829;50.798;4.358;2023-04-15T10:16:25;6.83;;;3.97;;
7575;SDS011;3829;50.798;4.358;2023-04-15T10:18:53;8.23;;;4.60;;
7575;SDS011;3829;50.798;4.358;2023-04-15T10:21:20;8.77;;;5.57;;
7575;SDS011;3829;50.798;4.358;2023-04-15T10:23:47;8.97;;;5.40;;
7575;SDS011;3829;50.798;4.358;2023-04-15T10:26:14;8.43;;;4.93;;
7575;SDS011;3829;50.798;4.358;2023-04-15T10:28:41;7.37;;;5.00;;
7575;SDS011;3829;50.798;4.358;2023-04-15T10:31:07;10.30;;;5.20;;
7575;SDS011;3829;50.798;4.358;2023-04-15T10:33:35;6.73;;;4.63;;
7575;SDS011;3829;50.798;4.358;2023-04-15T10:36:02;9.07;;;4.53;;
7575;SDS011;3829;50.798;4.358;2023-04-15T10:41:15;6.50;;;4.17;;
7575;SDS011;3829;50.798;4.358;2023-04-15T10:49:05;10.20;;;3.73;;
7575;SDS011;3829;50.798;4.358;2023-04-15T10:51:39;5.50;;;4.43;;
7575;SDS011;3829;50.798;4.358;2023-04-15T10:54:17;8.33;;;4.23;;
7575;SDS011;3829;50.798;4.358;2023-04-15T10:59:35;7.33;;;3.90;;
7575;SDS011;3829;50.798;4.358;2023-04-15T11:05:16;6.33;;;2.73;;
7575;SDS011;3829;50.798;4.358;2023-04-15T11:12:50;3.73;;;2.57;;
7575;SDS011;3829;50.798;4.358;2023-04-15T11:20:39;4.67;;;2.50;;
7575;SDS011;3829;50.798;4.358;2023-04-15T11:23:07;2.90;;;2.17;;
7575;SDS011;3829;50.798;4.358;2023-04-15T11:25:33;2.70;;;1.57;;
7575;SDS011;3829;50.798;4.358;2023-04-15T11:28:01;3.80;;;2.43;;
7575;SDS011;3829;50.798;4.358;2023-04-15T11:30:31;4.80;;;3.30;;
7575;SDS011;3829;50.798;4.358;2023-04-15T11:33:08;5.50;;;3.03;;
7575;SDS011;3829;50.798;4.358;2023-04-15T11:35:36;6.43;;;2.73;;
7575;SDS011;3829;50.798;4.358;2023-04-15T11:38:02;5.23;;;3.27;;
7575;SDS011;3829;50.798;4.358;2023-04-15T11:40:29;5.47;;;3.43;;
7575;SDS011;3829;50.798;4.358;2023-04-15T11:45:36;2.83;;;2.43;;
7575;SDS011;3829;50.798;4.358;2023-04-15T11:48:13;4.37;;;3.50;;
7575;SDS011;3829;50.798;4.358;2023-04-15T11:50:39;4.03;;;2.73;;
7575;SDS011;3829;50.798;4.358;2023-04-15T11:53:06;3.00;;;2.53;;
7575;SDS011;3829;50.798;4.358;2023-04-15T11:55:40;3.27;;;2.43;;
7575;SDS011;3829;50.798;4.358;2023-04-15T12:00:44;4.40;;;2.50;;
7575;SDS011;3829;50.798;4.358;2023-04-15T12:03:21;6.83;;;2.10;;
7575;SDS011;3829;50.798;4.358;2023-04-15T12:09:14;2.70;;;2.20;;
7575;SDS011;3829;50.798;4.358;2023-04-15T12:11:47;6.67;;;2.83;;
7575;SDS011;3829;50.798;4.358;2023-04-15T12:16:48;4.70;;;2.70;;
7575;SDS011;3829;50.798;4.358;2023-04-15T12:19:39;4.73;;;2.97;;
7575;SDS011;3829;50.798;4.358;2023-04-15T12:22:09;5.80;;;2.87;;
7575;SDS011;3829;50.798;4.358;2023-04-15T12:24:38;4.83;;;2.43;;
7575;SDS011;3829;50.798;4.358;2023-04-15T12:27:10;2.73;;;2.27;;
7575;SDS011;3829;50.798;4.358;2023-04-15T12:29:38;4.63;;;2.70;;
7575;SDS011;3829;50.798;4.358;2023-04-15T12:32:08;4.90;;;3.90;;
7575;SDS011;3829;50.798;4.358;2023-04-15T12:34:58;4.13;;;3.00;;
7575;SDS011;3829;50.798;4.358;2023-04-15T12:37:23;5.63;;;3.10;;
7575;SDS011;3829;50.798;4.358;2023-04-15T12:39:50;3.80;;;2.83;;
7575;SDS011;3829;50.798;4.358;2023-04-15T12:42:16;5.10;;;2.90;;
7575;SDS011;3829;50.798;4.358;2023-04-15T12:44:42;3.97;;;2.57;;
7575;SDS011;3829;50.798;4.358;2023-04-15T12:47:09;2.93;;;2.07;;
7575;SDS011;3829;50.798;4.358;2023-04-15T12:49:35;2.43;;;1.83;;
7575;SDS011;3829;50.798;4.358;2023-04-15T12:52:02;1.87;;;1.73;;
7575;SDS011;3829;50.798;4.358;2023-04-15T12:54:28;3.80;;;2.30;;
7575;SDS011;3829;50.798;4.358;2023-04-15T12:56:55;2.30;;;2.10;;
7575;SDS011;3829;50.798;4.358;2023-04-15T12:59:21;4.03;;;2.10;;
7575;SDS011;3829;50.798;4.358;2023-04-15T13:01:50;2.70;;;2.20;;
7575;SDS011;3829;50.798;4.358;2023-04-15T13:04:17;2.30;;;1.80;;
7575;SDS011;3829;50.798;4.358;2023-04-15T13:06:44;5.33;;;1.97;;
7575;SDS011;3829;50.798;4.358;2023-04-15T13:09:10;2.63;;;1.93;;
7575;SDS011;3829;50.798;4.358;2023-04-15T13:11:36;2.40;;;1.90;;
7575;SDS011;3829;50.798;4.358;2023-04-15T13:14:03;2.70;;;1.70;;
7575;SDS011;3829;50.798;4.358;2023-04-15T13:16:29;3.03;;;2.00;;
7575;SDS011;3829;50.798;4.358;2023-04-15T13:18:56;4.27;;;2.40;;
7575;SDS011;3829;50.798;4.358;2023-04-15T13:21:22;3.27;;;2.63;;
7575;SDS011;3829;50.798;4.358;2023-04-15T13:23:48;2.90;;;1.90;;
7575;SDS011;3829;50.798;4.358;2023-04-15T13:26:17;2.57;;;1.97;;
7575;SDS011;3829;50.798;4.358;2023-04-15T13:28:43;4.90;;;2.13;;
7575;SDS011;3829;50.798;4.358;2023-04-15T13:31:09;5.77;;;2.73;;
7575;SDS011;3829;50.798;4.358;2023-04-15T13:33:35;7.30;;;2.70;;
7575;SDS011;3829;50.798;4.358;2023-04-15T13:36:00;4.03;;;2.90;;
7575;SDS011;3829;50.798;4.358;2023-04-15T13:38:26;3.03;;;2.40;;
7575;SDS011;3829;50.798;4.358;2023-04-15T13:40:51;2.70;;;2.50;;
7575;SDS011;3829;50.798;4.358;2023-04-15T13:43:17;4.30;;;2.33;;
7575;SDS011;3829;50.798;4.358;2023-04-15T13:45:43;4.70;;;2.67;;
7575;SDS011;3829;50.798;4.358;2023-04-15T13:48:08;3.63;;;2.83;;
7575;SDS011;3829;50.798;4.358;2023-04-15T13:50:34;3.77;;;2.40;;
7575;SDS011;3829;50.798;4.358;2023-04-15T13:53:00;2.93;;;2.30;;
7575;SDS011;3829;50.798;4.358;2023-04-15T13:55:26;2.47;;;2.10;;
7575;SDS011;3829;50.798;4.358;2023-04-15T13:57:51;3.23;;;2.23;;
7575;SDS011;3829;50.798;4.358;2023-04-15T14:00:17;3.53;;;2.17;;
7575;SDS011;3829;50.798;4.358;2023-04-15T14:02:43;3.47;;;2.17;;
7575;SDS011;3829;50.798;4.358;2023-04-15T14:05:09;3.63;;;1.70;;
7575;SDS011;3829;50.798;4.358;2023-04-15T14:07:35;2.63;;;1.83;;
7575;SDS011;3829;50.798;4.358;2023-04-15T14:10:01;3.83;;;2.10;;
7575;SDS011;3829;50.798;4.358;2023-04-15T14:12:27;2.23;;;1.63;;
7575;SDS011;3829;50.798;4.358;2023-04-15T14:14:52;3.03;;;2.00;;
7575;SDS011;3829;50.798;4.358;2023-04-15T14:17:18;4.20;;;1.90;;
7575;SDS011;3829;50.798;4.358;2023-04-15T14:19:43;2.43;;;1.80;;
7575;SDS011;3829;50.798;4.358;2023-04-15T14:22:09;3.03;;;1.90;;
7575;SDS011;3829;50.798;4.358;2023-04-15T14:24:35;5.30;;;1.93;;
7575;SDS011;3829;50.798;4.358;2023-04-15T14:27:00;4.97;;;1.90;;
7575;SDS011;3829;50.798;4.358;2023-04-15T14:29:27;3.60;;;1.90;;
7575;SDS011;3829;50.798;4.358;2023-04-15T14:31:52;2.37;;;2.00;;
7575;SDS011;3829;50.798;4.358;2023-04-15T14:34:18;4.40;;;2.50;;
7575;SDS011;3829;50.798;4.358;2023-04-15T14:36:46;4.30;;;2.10;;
7575;SDS011;3829;50.798;4.358;2023-04-15T14:39:12;4.27;;;2.10;;
7575;SDS011;3829;50.798;4.358;2023-04-15T14:41:38;2.73;;;1.60;;
7575;SDS011;3829;50.798;4.358;2023-04-15T14:44:03;3.23;;;1.60;;
7575;SDS011;3829;50.798;4.358;2023-04-15T14:46:29;4.97;;;1.37;;
7575;SDS011;3829;50.798;4.358;2023-04-15T14:48:55;2.17;;;1.27;;
7575;SDS011;3829;50.798;4.358;2023-04-15T14:51:21;3.43;;;1.70;;
7575;SDS011;3829;50.798;4.358;2023-04-15T14:53:47;2.83;;;1.20;;
7575;SDS011;3829;50.798;4.358;2023-04-15T14:56:13;2.20;;;1.20;;
7575;SDS011;3829;50.798;4.358;2023-04-15T14:58:38;4.13;;;1.40;;
7575;SDS011;3829;50.798;4.358;2023-04-15T15:01:04;2.50;;;1.37;;
7575;SDS011;3829;50.798;4.358;2023-04-15T15:03:30;2.07;;;1.30;;
7575;SDS011;3829;50.798;4.358;2023-04-15T15:05:55;6.00;;;1.50;;
7575;SDS011;3829;50.798;4.358;2023-04-15T15:08:26;1.77;;;1.27;;
7575;SDS011;3829;50.798;4.358;2023-04-15T15:10:52;2.73;;;1.70;;
7575;SDS011;3829;50.798;4.358;2023-04-15T15:13:17;3.40;;;1.80;;
7575;SDS011;3829;50.798;4.358;2023-04-15T15:15:43;2.93;;;1.87;;
7575;SDS011;3829;50.798;4.358;2023-04-15T15:18:09;2.87;;;1.60;;
7575;SDS011;3829;50.798;4.358;2023-04-15T15:20:35;2.93;;;1.93;;
7575;SDS011;3829;50.798;4.358;2023-04-15T15:23:01;4.77;;;2.90;;
7575;SDS011;3829;50.798;4.358;2023-04-15T15:25:26;3.13;;;2.20;;
7575;SDS011;3829;50.798;4.358;2023-04-15T15:27:52;4.30;;;2.60;;
7575;SDS011;3829;50.798;4.358;2023-04-15T15:30:18;3.83;;;2.60;;
7575;SDS011;3829;50.798;4.358;2023-04-15T15:32:44;6.63;;;3.30;;
7575;SDS011;3829;50.798;4.358;2023-04-15T15:35:10;7.13;;;3.10;;
7575;SDS011;3829;50.798;4.358;2023-04-15T15:37:35;6.57;;;3.23;;
7575;SDS011;3829;50.798;4.358;2023-04-15T15:40:05;7.60;;;3.53;;
7575;SDS011;3829;50.798;4.358;2023-04-15T15:42:31;8.30;;;3.47;;